Turner, Oregon
Current Conditions -  °F | °C
As of 9:56 PM on Sunday 21 Dec 2014 (Local Time) from KSLE Reporting Station
Light Rain Light Rain  
Wind Chill: 51°   Ceiling: 5000
Heat Index: 51°   Visibility: 9mi
Dew Point: 49°   Wind: 6mph
Humidity: 92%   Direction: 170°S
Pressure: 30.17"   Gusts: NA
Location:  44.84°N, 122.95°W
Report Text: KSLE 220556Z AUTO 17005KT 9SM -RA FEW016 OVC050 11/09 A3017 RMK AO2 RAB0459 SLP218 P0002 60003 T01060094 10117 20100 58001
Loading
Personal Weather Stations






























Interactive Weather Map New forecast layout! Learn more

10-Day Weather Forecast

Advertisements
Track Severe Weather on mobile